createdAt,value
2022-08-22T00:02:26.736Z,60.10
2022-08-22T00:02:46.653Z,26.05
2022-08-22T00:02:53.143Z,15.40
2022-08-22T00:02:55.811Z,49.13
2022-08-22T00:05:05.122Z,60.45
2022-08-22T00:07:46.398Z,63.58
2022-08-22T00:10:25.616Z,60.35
2022-08-22T00:13:04.758Z,64.63
2022-08-22T00:15:43.533Z,61.58
2022-08-22T00:18:17.081Z,64.97
2022-08-22T00:20:51.007Z,59.95
2022-08-22T00:23:29.121Z,66.32
2022-08-22T00:26:05.411Z,62.05
2022-08-22T00:28:41.811Z,64.90
2022-08-22T00:31:21.307Z,66.63
2022-08-22T00:33:55.232Z,68.85
2022-08-22T00:36:34.008Z,69.85
2022-08-22T00:39:13.435Z,66.45
2022-08-22T00:42:31.386Z,64.78
2022-08-22T00:45:43.328Z,65.97
2022-08-22T00:48:37.626Z,69.25
2022-08-22T00:51:33.513Z,76.03
2022-08-22T00:54:17.639Z,72.82
2022-08-22T00:57:21.013Z,66.57
2022-08-22T01:00:07.129Z,68.38
2022-08-22T01:02:54.149Z,73.60
2022-08-22T01:05:52.139Z,69.38
2022-08-22T01:08:45.461Z,69.28
2022-08-22T01:11:34.489Z,71.53
2022-08-22T01:14:34.100Z,66.03
2022-08-22T01:17:28.954Z,67.30
2022-08-22T01:20:33.125Z,69.70
2022-08-22T01:23:55.963Z,70.35
2022-08-22T01:27:07.150Z,72.75
2022-08-22T01:30:16.480Z,70.82
2022-08-22T01:33:22.687Z,73.18
2022-08-22T01:36:17.092Z,69.47
2022-08-22T01:39:16.881Z,69.32
2022-08-22T01:42:13.321Z,71.38
2022-08-22T01:45:29.033Z,65.18
2022-08-22T01:48:06.864Z,69.25
2022-08-22T01:50:41.503Z,70.40
2022-08-22T01:53:23.838Z,70.88
2022-08-22T01:56:05.273Z,69.43
2022-08-22T01:58:37.731Z,69.40
2022-08-22T02:01:26.473Z,72.93
2022-08-22T02:04:05.565Z,71.80
2022-08-22T02:06:44.104Z,71.80
2022-08-22T02:09:30.997Z,74.45
2022-08-22T02:12:21.881Z,69.78
2022-08-22T02:14:59.589Z,71.65
2022-08-22T02:17:31.975Z,73.57
2022-08-22T02:20:11.355Z,68.63
2022-08-22T02:22:55.189Z,75.43
2022-08-22T02:25:32.294Z,71.80
2022-08-22T02:28:11.369Z,75.45
2022-08-22T02:30:49.697Z,74.97
2022-08-22T02:33:32.227Z,71.13
2022-08-22T02:36:11.440Z,74.63
2022-08-22T02:38:51.040Z,67.50
2022-08-22T02:41:30.918Z,73.15
2022-08-22T02:44:06.854Z,69.80
2022-08-22T02:46:49.110Z,71.32
2022-08-22T02:49:27.436Z,72.38
2022-08-22T02:52:10.117Z,72.57
2022-08-22T02:54:44.989Z,69.88
2022-08-22T02:57:20.947Z,72.35
2022-08-22T03:00:31.512Z,66.68
2022-08-22T03:03:06.990Z,65.10
2022-08-22T03:05:50.834Z,72.88
2022-08-22T03:08:26.461Z,74.68
2022-08-22T03:11:06.613Z,65.57
2022-08-22T03:13:54.716Z,64.43
2022-08-22T03:16:33.591Z,65.40
2022-08-22T03:19:13.209Z,61.55
2022-08-22T03:21:57.532Z,65.65
2022-08-22T03:24:35.171Z,66.75
2022-08-22T03:27:13.334Z,66.85
2022-08-22T03:30:03.907Z,63.90
2022-08-22T03:32:49.920Z,73.22
2022-08-22T03:35:27.907Z,68.25
2022-08-22T03:38:14.206Z,63.95
2022-08-22T03:41:11.622Z,74.97
2022-08-22T03:44:08.467Z,70.43
2022-08-22T03:47:08.592Z,67.60
2022-08-22T03:50:29.198Z,69.90
2022-08-22T03:53:22.742Z,74.40
2022-08-22T03:56:33.465Z,74.38
2022-08-22T03:59:27.151Z,70.47
2022-08-22T04:02:43.131Z,73.53
2022-08-22T04:05:58.806Z,79.50
2022-08-22T04:09:14.562Z,84.38
2022-08-22T04:12:18.669Z,79.60
2022-08-22T04:15:21.968Z,80.30
2022-08-22T04:18:25.997Z,83.28
2022-08-22T04:21:16.050Z,79.15
2022-08-22T04:24:14.873Z,86.60
2022-08-22T04:26:49.914Z,85.55
2022-08-22T04:29:24.975Z,96.65
2022-08-22T04:32:02.663Z,95.65
2022-08-22T04:34:39.646Z,97.38
2022-08-22T04:37:16.958Z,90.95
2022-08-22T04:39:53.312Z,98.60
2022-08-22T04:42:32.798Z,93.72
2022-08-22T04:45:08.476Z,97.20
2022-08-22T04:47:41.650Z,100.55
2022-08-22T04:50:20.787Z,94.65
2022-08-22T04:53:13.526Z,99.78
2022-08-22T04:55:53.049Z,100.50
2022-08-22T04:58:33.697Z,100.82
2022-08-22T05:01:15.045Z,97.68
2022-08-22T05:03:52.734Z,99.70
2022-08-22T05:06:28.189Z,93.20
2022-08-22T05:09:01.565Z,104.93
2022-08-22T05:11:32.447Z,95.28
2022-08-22T05:14:06.648Z,102.25
2022-08-22T05:16:39.333Z,99.90
2022-08-22T05:19:16.909Z,102.15
2022-08-22T05:21:51.334Z,98.00
2022-08-22T05:24:28.031Z,104.63
2022-08-22T05:27:01.634Z,102.88
2022-08-22T05:29:34.701Z,100.95
2022-08-22T05:32:09.717Z,106.60
2022-08-22T05:34:41.876Z,102.80
2022-08-22T05:37:15.990Z,111.20
2022-08-22T05:39:49.280Z,111.13
2022-08-22T05:42:25.152Z,114.68
2022-08-22T05:44:56.026Z,124.55
2022-08-22T05:47:29.465Z,122.10
2022-08-22T05:50:05.039Z,120.97
2022-08-22T05:53:03.066Z,127.65
2022-08-22T05:55:40.135Z,123.68
2022-08-22T05:58:39.198Z,130.32
2022-08-22T06:01:21.350Z,131.20
2022-08-22T06:04:00.900Z,134.60
2022-08-22T06:06:34.514Z,129.52
2022-08-22T06:09:13.916Z,135.13
2022-08-22T06:11:51.668Z,133.02
2022-08-22T06:14:33.357Z,137.50
2022-08-22T06:17:09.826Z,145.60
2022-08-22T06:19:43.143Z,144.40
2022-08-22T06:22:18.710Z,143.38
2022-08-22T06:24:52.592Z,140.70
2022-08-22T06:27:25.677Z,154.27
2022-08-22T06:29:59.347Z,145.95
2022-08-22T06:32:44.557Z,138.90
2022-08-22T06:35:25.906Z,141.88
2022-08-22T06:38:01.027Z,144.55
2022-08-22T06:40:32.518Z,148.88
2022-08-22T06:45:33.960Z,148.35
2022-08-22T06:48:17.369Z,147.95
2022-08-22T06:50:50.720Z,146.75
2022-08-22T06:53:23.758Z,147.50
2022-08-22T06:55:58.306Z,146.75
2022-08-22T06:58:34.270Z,153.60
2022-08-22T07:01:11.390Z,152.13
2022-08-22T07:03:46.731Z,152.57
2022-08-22T07:06:17.536Z,156.50
2022-08-22T07:08:47.417Z,150.27
2022-08-22T07:11:25.898Z,156.65
2022-08-22T07:13:58.877Z,153.73
2022-08-22T07:16:33.348Z,158.27
2022-08-22T07:19:03.370Z,152.00
2022-08-22T07:21:43.749Z,147.32
2022-08-22T07:24:19.489Z,154.93
2022-08-22T07:27:05.507Z,156.90
2022-08-22T07:29:45.575Z,152.73
2022-08-22T07:32:21.086Z,152.98
2022-08-22T07:35:04.856Z,152.45
2022-08-22T07:37:52.692Z,157.90
2022-08-22T07:40:30.107Z,152.23
2022-08-22T07:43:09.861Z,148.18
2022-08-22T07:45:45.370Z,162.90
2022-08-22T07:48:25.811Z,151.60
2022-08-22T07:51:11.499Z,157.93
2022-08-22T07:53:45.125Z,159.35
2022-08-22T07:56:18.721Z,156.32
2022-08-22T07:58:55.010Z,158.25
2022-08-22T08:01:25.577Z,158.73
2022-08-22T08:03:59.558Z,164.38
2022-08-22T08:06:31.585Z,178.38
2022-08-22T08:09:01.428Z,157.43
2022-08-22T08:11:38.559Z,163.48
2022-08-22T08:14:13.722Z,157.50
2022-08-22T08:16:46.342Z,154.93
2022-08-22T08:19:19.293Z,169.35
2022-08-22T08:21:53.154Z,156.48
2022-08-22T08:24:27.325Z,156.70
2022-08-22T08:27:16.075Z,143.07
2022-08-22T08:29:54.925Z,145.95
2022-08-22T08:32:26.477Z,127.43
2022-08-22T08:34:56.797Z,129.88
2022-08-22T08:37:31.614Z,126.10
2022-08-22T08:40:04.482Z,118.07
2022-08-22T08:43:14.323Z,133.77
2022-08-22T08:46:08.302Z,120.90
2022-08-22T08:49:06.932Z,121.22
2022-08-22T08:51:52.808Z,124.72
2022-08-22T08:54:44.738Z,120.90
2022-08-22T08:57:22.584Z,112.43
2022-08-22T09:00:04.891Z,125.53
2022-08-22T09:02:51.989Z,106.72
2022-08-22T09:05:56.188Z,116.47
2022-08-22T09:09:01.104Z,107.90
2022-08-22T09:12:01.189Z,103.50
2022-08-22T09:14:50.481Z,101.05
2022-08-22T09:17:41.049Z,95.30
2022-08-22T09:20:36.315Z,90.83
2022-08-22T09:23:37.372Z,90.90
2022-08-22T09:26:17.591Z,88.03
2022-08-22T09:28:55.666Z,90.57
2022-08-22T09:31:48.155Z,97.65
2022-08-22T09:34:28.451Z,93.53
2022-08-22T09:37:14.394Z,105.13
2022-08-22T09:39:52.886Z,98.20
2022-08-22T09:42:32.776Z,98.82
2022-08-22T09:45:42.899Z,92.10
2022-08-22T09:48:37.032Z,94.78
2022-08-22T09:51:32.246Z,98.40
2022-08-22T09:54:22.525Z,95.70
2022-08-22T09:57:09.675Z,97.88
2022-08-22T10:02:31.229Z,90.78
2022-08-22T10:05:07.258Z,80.22
2022-08-22T10:07:58.226Z,88.95
2022-08-22T10:10:45.937Z,78.30
2022-08-22T10:13:28.693Z,77.07
2022-08-22T10:16:06.245Z,77.07
2022-08-22T10:18:52.741Z,69.88
2022-08-22T10:21:35.857Z,70.57
2022-08-22T10:24:24.606Z,67.85
2022-08-22T10:27:04.382Z,77.47
2022-08-22T10:29:53.449Z,79.47
2022-08-22T10:32:33.000Z,72.25
2022-08-22T10:35:16.617Z,78.28
2022-08-22T10:37:55.786Z,75.60
2022-08-22T10:40:31.102Z,73.28
2022-08-22T10:43:10.417Z,70.57
2022-08-22T10:45:45.570Z,53.28
2022-08-22T10:48:32.270Z,58.75
2022-08-22T10:51:22.306Z,53.00
2022-08-22T10:54:04.961Z,54.42
2022-08-22T10:56:40.726Z,63.67
2022-08-22T10:59:33.526Z,59.70
2022-08-22T11:02:18.712Z,59.55
2022-08-22T11:05:21.232Z,61.92
2022-08-22T11:08:03.932Z,65.05
2022-08-22T11:10:49.206Z,73.22
2022-08-22T11:13:30.715Z,67.28
2022-08-22T11:16:15.228Z,63.60
2022-08-22T11:19:15.397Z,64.40
2022-08-22T11:21:56.490Z,60.78
2022-08-22T11:25:05.073Z,48.63
2022-08-22T11:27:44.292Z,41.85
2022-08-22T11:30:18.724Z,43.00
2022-08-22T11:33:46.359Z,46.38
2022-08-22T11:36:39.586Z,40.80
2022-08-22T11:39:24.531Z,41.25
2022-08-22T11:42:06.274Z,36.35
2022-08-22T11:44:50.461Z,34.05
2022-08-22T11:47:26.764Z,39.45
2022-08-22T11:50:10.759Z,31.20
2022-08-22T11:53:09.864Z,32.55
2022-08-22T11:55:42.812Z,31.75
2022-08-22T11:58:29.226Z,30.73
2022-08-22T12:01:04.707Z,34.35
2022-08-22T12:03:58.699Z,31.25
2022-08-22T12:06:44.896Z,29.23
2022-08-22T12:09:35.665Z,26.20
2022-08-22T12:12:20.850Z,24.48
2022-08-22T12:15:00.004Z,24.73
2022-08-22T12:18:04.870Z,25.58
2022-08-22T12:20:52.449Z,21.80
2022-08-22T12:23:52.650Z,17.98
2022-08-22T12:26:31.469Z,20.38
2022-08-22T12:29:33.573Z,26.02
2022-08-22T12:32:45.804Z,16.65
2022-08-22T12:35:32.653Z,18.85
2022-08-22T12:38:28.844Z,11.45
2022-08-22T12:41:35.032Z,12.02
2022-08-22T12:44:22.491Z,13.73
2022-08-22T12:47:06.772Z,12.13
2022-08-22T12:57:36.500Z,13.52
2022-08-22T13:00:26.714Z,17.17
2022-08-22T13:02:56.993Z,15.20
2022-08-22T13:05:29.532Z,18.50
2022-08-22T13:08:04.622Z,7.97
2022-08-22T13:10:47.803Z,8.90
2022-08-22T13:13:36.962Z,9.27
2022-08-22T13:16:11.677Z,14.15
2022-08-22T13:18:55.030Z,11.57
2022-08-22T13:21:34.602Z,10.73
2022-08-22T13:24:10.481Z,9.82
2022-08-22T13:26:50.053Z,8.68
2022-08-22T13:29:27.339Z,12.38
2022-08-22T13:32:11.325Z,13.65
2022-08-22T13:34:45.962Z,10.52
2022-08-22T13:37:24.397Z,11.10
2022-08-22T13:39:59.763Z,8.00
2022-08-22T13:42:32.512Z,12.02
2022-08-22T13:45:11.960Z,8.65
2022-08-22T13:47:51.389Z,10.57
2022-08-22T13:50:24.249Z,8.95
2022-08-22T13:53:00.255Z,12.32
2022-08-22T13:55:38.063Z,10.32
2022-08-22T13:58:24.945Z,12.80
2022-08-22T14:01:25.426Z,9.63
2022-08-22T14:04:01.118Z,48.08
2022-08-22T14:06:43.744Z,8.05
2022-08-22T14:09:32.146Z,11.25
2022-08-22T14:12:12.151Z,12.90
2022-08-22T14:14:45.878Z,58.80
2022-08-22T14:17:21.498Z,9.88
2022-08-22T14:20:01.501Z,9.68
2022-08-22T14:22:35.987Z,20.25
2022-08-22T14:25:10.234Z,9.60
2022-08-22T14:27:58.639Z,11.77
2022-08-22T14:30:30.808Z,14.68
2022-08-22T14:33:22.781Z,10.75
2022-08-22T14:35:57.586Z,7.03
2022-08-22T14:38:35.825Z,11.35
2022-08-22T14:41:08.065Z,16.15
2022-08-22T14:43:52.243Z,11.18
2022-08-22T14:46:26.929Z,11.15
2022-08-22T14:49:38.287Z,14.70
2022-08-22T14:52:19.527Z,10.65
2022-08-22T14:54:51.020Z,14.25
2022-08-22T14:57:20.912Z,14.55
2022-08-22T14:59:53.428Z,10.38
2022-08-22T15:02:28.298Z,10.05
2022-08-22T15:05:01.208Z,11.90
2022-08-22T15:07:37.551Z,10.55
2022-08-22T15:10:20.773Z,17.20
2022-08-22T15:12:55.581Z,11.57
2022-08-22T15:15:49.723Z,11.80
2022-08-22T15:18:36.209Z,11.65
2022-08-22T15:21:10.066Z,14.57
2022-08-22T15:23:46.723Z,11.27
2022-08-22T15:26:25.053Z,10.95
2022-08-22T15:29:06.501Z,9.38
2022-08-22T15:31:43.460Z,6.10
2022-08-22T15:34:25.149Z,9.10
2022-08-22T15:37:08.340Z,11.57
2022-08-22T15:40:02.658Z,7.68
2022-08-22T15:42:36.462Z,9.00
2022-08-22T15:45:07.701Z,11.00
2022-08-22T15:50:15.334Z,11.55
2022-08-22T15:53:21.152Z,12.35
2022-08-22T15:56:24.498Z,10.38
2022-08-22T15:59:11.137Z,7.70
2022-08-22T16:01:49.803Z,10.13
2022-08-22T16:04:35.473Z,6.75
2022-08-22T16:07:21.079Z,12.85
2022-08-22T16:09:53.521Z,7.13
2022-08-22T16:12:35.432Z,10.88
2022-08-22T16:15:09.243Z,10.82
2022-08-22T16:17:53.567Z,12.32
2022-08-22T16:20:55.606Z,8.70
2022-08-22T16:23:24.907Z,10.90
2022-08-22T16:26:15.141Z,10.98
2022-08-22T16:28:59.166Z,9.07
2022-08-22T16:31:32.582Z,9.50
2022-08-22T16:34:32.570Z,9.02
2022-08-22T16:37:47.631Z,13.02
2022-08-22T16:40:28.258Z,10.05
2022-08-22T16:43:28.995Z,14.13
2022-08-22T16:46:23.378Z,12.70
2022-08-22T16:49:03.220Z,14.48
2022-08-22T16:51:32.752Z,11.32
2022-08-22T16:54:11.889Z,20.13
2022-08-22T16:57:05.182Z,12.93
2022-08-22T16:59:54.373Z,11.98
2022-08-22T17:02:43.583Z,12.52
2022-08-22T17:05:46.682Z,14.35
2022-08-22T17:08:34.227Z,16.95
2022-08-22T17:11:53.607Z,14.73
2022-08-22T17:14:43.704Z,13.48
2022-08-22T17:17:26.788Z,20.52
2022-08-22T17:20:15.132Z,8.40
2022-08-22T17:22:57.911Z,10.05
2022-08-22T17:25:36.024Z,11.05
2022-08-22T17:28:17.213Z,18.17
2022-08-22T17:31:07.159Z,15.95
2022-08-22T17:34:13.899Z,12.70
2022-08-22T17:39:51.746Z,11.25
2022-08-22T17:42:44.366Z,11.60
2022-08-22T17:45:27.710Z,12.20
2022-08-22T17:48:07.599Z,16.60
2022-08-22T17:50:42.185Z,12.35
2022-08-22T17:53:18.345Z,19.27
2022-08-22T17:56:02.600Z,15.75
2022-08-22T17:58:43.591Z,16.05
2022-08-22T18:03:52.532Z,16.25
2022-08-22T18:06:26.677Z,12.30
2022-08-22T18:09:17.056Z,15.75
2022-08-22T18:11:56.866Z,16.95
2022-08-22T18:14:34.900Z,13.05
2022-08-22T18:17:19.186Z,20.02
2022-08-22T18:20:07.754Z,15.10
2022-08-22T18:22:45.987Z,17.70
2022-08-22T18:25:34.771Z,18.13
2022-08-22T18:28:11.984Z,15.40
2022-08-22T18:30:55.091Z,12.23
2022-08-22T18:33:32.903Z,13.05
2022-08-22T18:36:15.826Z,17.45
2022-08-22T18:38:55.143Z,14.75
2022-08-22T18:41:37.937Z,17.67
2022-08-22T18:44:17.015Z,18.73
2022-08-22T18:46:51.658Z,21.13
2022-08-22T18:49:53.679Z,13.85
2022-08-22T18:52:41.441Z,15.52
2022-08-22T18:55:31.636Z,13.52
2022-08-22T18:58:32.603Z,12.43
2022-08-22T19:01:42.125Z,13.30
2022-08-22T19:04:43.118Z,16.83
2022-08-22T19:07:28.020Z,13.02
2022-08-22T19:10:23.094Z,15.73
2022-08-22T19:13:14.322Z,15.68
2022-08-22T19:16:04.150Z,16.63
2022-08-22T19:18:46.453Z,17.73
2022-08-22T19:21:47.268Z,19.70
2022-08-22T19:24:37.392Z,16.97
2022-08-22T19:27:31.520Z,16.58
2022-08-22T19:30:04.411Z,15.75
2022-08-22T19:33:04.111Z,21.90
2022-08-22T19:35:47.378Z,19.58
2022-08-22T19:38:53.088Z,23.35
2022-08-22T19:42:00.753Z,21.60
2022-08-22T19:44:37.239Z,21.25
2022-08-22T19:47:17.666Z,19.48
2022-08-22T19:50:05.683Z,19.23
2022-08-22T19:53:10.385Z,22.30
2022-08-22T19:55:54.813Z,26.88
2022-08-22T19:58:40.381Z,22.55
2022-08-22T20:01:43.176Z,18.92
2022-08-22T20:04:37.743Z,24.42
2022-08-22T20:07:19.465Z,21.30
2022-08-22T20:09:59.037Z,20.75
2022-08-22T20:12:50.718Z,20.15
2022-08-22T20:21:02.057Z,24.08
2022-08-22T20:23:34.598Z,21.98
2022-08-22T20:26:04.686Z,24.10
2022-08-22T20:28:52.012Z,32.83
2022-08-22T20:31:24.123Z,28.30
2022-08-22T20:33:59.321Z,25.80
2022-08-22T20:39:11.354Z,25.00
2022-08-22T20:41:45.189Z,25.08
2022-08-22T20:46:57.450Z,28.75
2022-08-22T20:49:31.419Z,29.70
2022-08-22T20:52:05.960Z,26.23
2022-08-22T20:54:39.400Z,27.30
2022-08-22T20:57:16.697Z,25.33
2022-08-22T20:59:54.877Z,28.95
2022-08-22T21:02:28.711Z,26.15
2022-08-22T21:05:03.277Z,26.88
2022-08-22T21:07:35.607Z,28.77
2022-08-22T21:10:28.342Z,28.05
2022-08-22T21:13:08.622Z,27.50
2022-08-22T21:15:40.469Z,30.80
2022-08-22T21:18:11.816Z,30.38
2022-08-22T21:20:41.669Z,33.35
2022-08-22T21:23:15.589Z,30.27
2022-08-22T21:25:59.146Z,32.45
2022-08-22T21:28:31.318Z,31.35
2022-08-22T21:33:44.536Z,34.05
2022-08-22T21:36:22.347Z,32.25
2022-08-22T21:38:54.829Z,33.50
2022-08-22T21:41:33.539Z,29.30
2022-08-22T21:44:40.018Z,30.02
2022-08-22T21:47:30.736Z,31.92
2022-08-22T21:50:12.531Z,33.58
2022-08-22T21:52:44.939Z,37.95
2022-08-22T21:55:25.989Z,34.15
2022-08-22T21:58:22.019Z,35.80
2022-08-22T22:01:30.167Z,33.33
2022-08-22T22:04:00.692Z,34.60
2022-08-22T22:06:29.914Z,34.58
2022-08-22T22:08:59.150Z,36.72
2022-08-22T22:11:28.407Z,32.45
2022-08-22T22:14:04.671Z,34.22
2022-08-22T22:16:34.096Z,35.83
2022-08-22T22:19:03.376Z,34.65
2022-08-22T22:21:40.277Z,32.90
2022-08-22T22:24:14.734Z,33.85
2022-08-22T22:26:44.176Z,35.60
2022-08-22T22:29:15.705Z,38.20
2022-08-22T22:31:45.334Z,37.47
2022-08-22T22:34:19.705Z,37.67
2022-08-22T22:36:49.299Z,35.70
2022-08-22T22:39:18.478Z,34.78
2022-08-22T22:41:48.557Z,32.58
2022-08-22T22:44:25.328Z,34.33
2022-08-22T22:46:58.570Z,33.67
2022-08-22T22:49:36.535Z,33.97
2022-08-22T22:52:07.111Z,36.65
2022-08-22T22:54:46.743Z,34.35
2022-08-22T22:57:25.583Z,37.05
2022-08-22T23:00:02.185Z,39.20
2022-08-22T23:02:33.424Z,35.95
2022-08-22T23:05:02.594Z,35.47
2022-08-22T23:07:33.803Z,36.75
2022-08-22T23:10:12.330Z,32.15
2022-08-22T23:12:41.988Z,35.78
2022-08-22T23:15:14.345Z,37.45
2022-08-22T23:17:43.628Z,35.55
2022-08-22T23:20:13.127Z,37.00
2022-08-22T23:22:51.188Z,35.33
2022-08-22T23:25:20.637Z,37.88
2022-08-22T23:27:57.547Z,34.20
2022-08-22T23:30:28.629Z,34.10
2022-08-22T23:33:03.066Z,31.90
2022-08-22T23:35:32.353Z,31.45
2022-08-22T23:38:01.858Z,29.77
2022-08-22T23:40:31.297Z,34.85
2022-08-22T23:43:01.008Z,31.58
2022-08-22T23:45:32.465Z,37.33
2022-08-22T23:48:01.775Z,33.42
2022-08-22T23:50:31.111Z,35.80
2022-08-22T23:53:00.458Z,34.53
2022-08-22T23:55:29.789Z,32.00
2022-08-22T23:57:59.071Z,34.97
